Home > Products > Valid Products > TAF

000
FTUS43 KUNR 222300
TAFRAP
TAF
KRAP 222328Z 2300/2324 33035G50KT 1SM -SN SCT015 OVC030
      TEMPO 2300/2303 3SM -SN BKN015 OVC030
     FM230300 33032G42KT 1SM -SN BLSN OVC015
     FM231100 34030G40KT 5SM -SHSN BLSN OVC015
     FM231600 34024KT P6SM OVC015=



000
FTUS43 KUNR 222300
TAFGCC
TAF
KGCC 222328Z 2300/2324 32022G32KT P6SM BKN035 OVC060
     FM230300 32022G32KT 1 1/2SM -SN BR OVC010
     FM231200 33020KT P6SM OVC035=



000
FTUS43 KUNR 222100 AAA
TAFRAP
TAF AMD
KRAP 222147Z 2222/2318 33035G46KT P6SM SCT045 BKN060
      TEMPO 2222/2301 -RASN OVC040
     FM230100 33032G45KT 5SM -SN OVC030
     FM230500 33032G42KT 1SM -SN BLSN OVC020
     FM231100 34030G40KT 5SM -SHSN BLSN OVC025=



000
FTUS43 KUNR 221700
TAFGCC
TAF
KGCC 221720Z 2218/2318 31020G30KT P6SM BKN070
     FM222300 32018G28KT 5SM -SN OVC015
     FM230300 32018G28KT 1 1/2SM -SN BR OVC010
     FM231000 33020G30KT 5SM -SHSN OVC035=



000
FTUS43 KUNR 221700
TAFRAP
TAF
KRAP 221720Z 2218/2318 33034G45KT P6SM BKN100
     FM230100 33032G45KT 5SM -SN OVC030
     FM230500 33032G42KT 1SM -SN BLSN OVC020
     FM231100 34030G40KT 5SM -SHSN BLSN OVC025=



000
FTUS43 KUNR 221300 AAA
TAFRAP
TAF AMD
KRAP 221311Z 2213/2312 33026G40KT P6SM BKN120
     FM221800 33035G50KT P6SM BKN100
     FM230000 34026G40KT 5SM -SHSN BKN025 OVC050=



000
FTUS43 KUNR 221300 AAA
TAFRAP
TAF AMD
KRAP 221311Z 2213/2312 33026G40KT P6SM BKN120
     FM221800 33035G50KT P6SM BKN100
     FM230000 34026G40KT 5SM -SHSN BKN025 OVC050=



000
FTUS43 KUNR 221100
TAFRAP
TAF
KRAP 221120Z 2212/2312 33022G35KT P6SM BKN120
     FM221900 33035G50KT P6SM BKN100
     FM230000 34026G40KT 5SM -SHSN BKN025 OVC050=



000
FTUS43 KUNR 221100
TAFGCC
TAF
KGCC 221120Z 2212/2312 30015KT P6SM BKN100
     FM221800 31023G33KT P6SM BKN050
     FM222200 33020G32KT 2SM -SN SCT007 OVC010=



000
FTUS43 KUNR 220900 AAA
TAFRAP
TAF AMD
KRAP 220925Z 2209/2306 33025G35KT P6SM SCT050
     FM221600 33035G50KT P6SM BKN040=



000
FTUS43 KUNR 220800 AAA
TAFGCC
TAF AMD
KGCC 220829Z 2208/2306 30018G28KT P6SM BKN050
     FM222100 32024G36KT 5SM -SHSN BKN015=



000
FTUS43 KUNR 220500
TAFGCC
TAF
KGCC 220520Z 2206/2306 30024G36KT P6SM BKN030
      TEMPO 2206/2209 3SM -SHSN BKN015
     FM222100 32024G36KT 5SM -SHSN BKN015=



000
FTUS43 KUNR 220500
TAFRAP
TAF
KRAP 220520Z 2206/2306 32020G30KT P6SM BKN040
     FM220900 33028G40KT P6SM BKN040
     FM221600 33035G50KT P6SM BKN040=



000
FTUS43 KUNR 212300
TAFRAP
TAF
KRAP 212330Z 2200/2224 33011KT P6SM BKN080
     FM220200 32020G30KT P6SM BKN060
     FM220900 33028G40KT P6SM BKN040
     FM221600 33035G50KT P6SM BKN040=



000
FTUS43 KUNR 212300
TAFGCC
TAF
KGCC 212330Z 2200/2224 30020G30KT P6SM BKN050
     FM220300 30024G36KT P6SM BKN030
      TEMPO 2203/2207 5SM -SN BKN020=



000
FTUS43 KUNR 211700
TAFRAP
TAF
KRAP 211724Z 2118/2218 VRB06KT P6SM BKN100
     FM212100 33011KT P6SM BKN080
     FM220200 32020G30KT P6SM BKN050
     FM221000 32027G37KT P6SM BKN030=



000
FTUS43 KUNR 211700
TAFGCC
TAF
KGCC 211724Z 2118/2218 25014KT P6SM OVC080
      TEMPO 2120/2124 -SHRASN
     FM220100 30020G30KT P6SM OVC040
     FM221200 33025G35KT 5SM -SN OVC025=



000
FTUS43 KUNR 211400 AAA
TAFGCC
TAF AMD
KGCC 211457Z 2115/2212 22018G28KT P6SM BKN100
     FM212000 27014KT P6SM BKN040
     FM220200 30020G30KT P6SM BKN040
     FM220900 30025G35KT P6SM BKN030=



000
FTUS43 KUNR 211100
TAFRAP
TAF
KRAP 211134Z 2112/2212 VRB05KT P6SM BKN150
     FM212100 32011KT P6SM BKN080
     FM220900 32022G32KT P6SM SCT020 BKN035=



000
FTUS43 KUNR 211100
TAFGCC
TAF
KGCC 211134Z 2112/2212 22015KT P6SM BKN100
     FM211900 27014KT P6SM BKN040
     FM220200 30020G30KT P6SM BKN040
     FM220900 30025G35KT P6SM BKN030=



000
FTUS43 KUNR 210500
TAFGCC
TAF
KGCC 210520Z 2106/2206 22014KT P6SM BKN100
     FM211800 26014KT P6SM BKN040
     FM220000 30022G32KT P6SM BKN040=



000
FTUS43 KUNR 210500
TAFRAP
TAF
KRAP 210520Z 2106/2206 VRB05KT P6SM BKN150
     FM211800 16009KT P6SM BKN080
     FM220000 32020G30KT P6SM BKN060=



000
FTUS43 KUNR 202300
TAFRAP
TAF
KRAP 202320Z 2100/2124 VRB05KT P6SM BKN150
     FM211800 16009KT P6SM BKN080=



000
FTUS43 KUNR 202300
TAFGCC
TAF
KGCC 202320Z 2100/2124 VRB05KT P6SM BKN100
     FM210500 22014KT P6SM BKN100
     FM211800 26014KT P6SM BKN040=



000
FTUS43 KUNR 201700
TAFGCC
TAF
KGCC 201720Z 2018/2118 VRB05KT P6SM BKN080
     FM210500 22015KT P6SM BKN100=



000
FTUS43 KUNR 201700
TAFRAP
TAF
KRAP 201720Z 2018/2118 31008KT P6SM BKN100
     FM210300 17007KT P6SM SCT120=



000
FTUS43 KUNR 201100
TAFGCC
TAF
KGCC 201120Z 2012/2112 32008KT P6SM BKN080
     FM202100 22008KT P6SM BKN100=



000
FTUS43 KUNR 201100
TAFRAP
TAF
KRAP 201120Z 2012/2112 32008KT P6SM BKN100
     FM202300 VRB05KT P6SM SCT150=



000
FTUS43 KUNR 200500
TAFGCC
TAF
KGCC 200520Z 2006/2106 22011KT P6SM BKN100
     FM201300 25010KT P6SM OVC040=



000
FTUS43 KUNR 200500
TAFRAP
TAF
KRAP 200520Z 2006/2106 VRB05KT P6SM SCT200
     FM201400 33008KT P6SM SCT060 OVC100=



    US Dept of Commerce
    National Oceanic and Atmospheric Administration
    National Weather Service
    1325 East West Highway
    Silver Spring, MD 20910
    Page Author: NWS Internet Services Team
Disclaimer
Information Quality
Credits
Glossary
Privacy Policy
Freedom of Information Act (FOIA)
About Us
Career Opportunities